sensor_id;sensor_type;location;lat;lon;timestamp;P1;durP1;ratioP1;P2;durP2;ratioP2
24161;SDS011;12318;51.262;7.066;2022-12-07T00:00:53;70.95;;;44.70;;
24161;SDS011;12318;51.262;7.066;2022-12-07T00:03:40;90.20;;;52.15;;
24161;SDS011;12318;51.262;7.066;2022-12-07T00:06:07;115.05;;;56.90;;
24161;SDS011;12318;51.262;7.066;2022-12-07T00:08:34;125.55;;;61.20;;
24161;SDS011;12318;51.262;7.066;2022-12-07T00:11:05;152.85;;;69.07;;
24161;SDS011;12318;51.262;7.066;2022-12-07T00:13:33;135.00;;;65.88;;
24161;SDS011;12318;51.262;7.066;2022-12-07T00:16:03;171.82;;;70.40;;
24161;SDS011;12318;51.262;7.066;2022-12-07T00:18:34;144.50;;;66.80;;
24161;SDS011;12318;51.262;7.066;2022-12-07T00:21:02;160.88;;;68.03;;
24161;SDS011;12318;51.262;7.066;2022-12-07T00:23:39;138.80;;;66.10;;
24161;SDS011;12318;51.262;7.066;2022-12-07T00:26:13;169.50;;;73.85;;
24161;SDS011;12318;51.262;7.066;2022-12-07T00:28:47;154.38;;;69.70;;
24161;SDS011;12318;51.262;7.066;2022-12-07T00:31:14;198.73;;;77.53;;
24161;SDS011;12318;51.262;7.066;2022-12-07T00:33:41;143.40;;;69.63;;
24161;SDS011;12318;51.262;7.066;2022-12-07T00:36:08;191.30;;;76.80;;
24161;SDS011;12318;51.262;7.066;2022-12-07T00:38:36;121.55;;;62.17;;
24161;SDS011;12318;51.262;7.066;2022-12-07T00:41:04;125.80;;;65.38;;
24161;SDS011;12318;51.262;7.066;2022-12-07T00:43:41;169.70;;;75.25;;
24161;SDS011;12318;51.262;7.066;2022-12-07T00:46:08;170.35;;;76.15;;
24161;SDS011;12318;51.262;7.066;2022-12-07T00:48:35;185.85;;;80.95;;
24161;SDS011;12318;51.262;7.066;2022-12-07T00:51:02;173.77;;;75.07;;
24161;SDS011;12318;51.262;7.066;2022-12-07T00:53:28;226.60;;;85.65;;
24161;SDS011;12318;51.262;7.066;2022-12-07T00:55:54;163.75;;;74.40;;
24161;SDS011;12318;51.262;7.066;2022-12-07T00:58:21;281.38;;;90.30;;
24161;SDS011;12318;51.262;7.066;2022-12-07T01:00:48;286.58;;;93.13;;
24161;SDS011;12318;51.262;7.066;2022-12-07T01:03:14;182.38;;;78.80;;
24161;SDS011;12318;51.262;7.066;2022-12-07T01:05:48;256.35;;;89.53;;
24161;SDS011;12318;51.262;7.066;2022-12-07T01:08:17;243.13;;;90.32;;
24161;SDS011;12318;51.262;7.066;2022-12-07T01:10:43;251.57;;;93.47;;
24161;SDS011;12318;51.262;7.066;2022-12-07T01:13:08;169.07;;;77.50;;
24161;SDS011;12318;51.262;7.066;2022-12-07T01:15:34;202.70;;;85.45;;
24161;SDS011;12318;51.262;7.066;2022-12-07T01:18:05;448.50;;;106.60;;
24161;SDS011;12318;51.262;7.066;2022-12-07T01:20:31;309.23;;;95.10;;
24161;SDS011;12318;51.262;7.066;2022-12-07T01:22:56;271.50;;;91.22;;
24161;SDS011;12318;51.262;7.066;2022-12-07T01:25:22;91.63;;;54.28;;
24161;SDS011;12318;51.262;7.066;2022-12-07T01:27:48;467.77;;;110.57;;
24161;SDS011;12318;51.262;7.066;2022-12-07T01:30:13;475.10;;;109.93;;
24161;SDS011;12318;51.262;7.066;2022-12-07T01:32:39;247.63;;;88.80;;
24161;SDS011;12318;51.262;7.066;2022-12-07T01:35:05;332.00;;;95.82;;
24161;SDS011;12318;51.262;7.066;2022-12-07T01:37:35;352.85;;;92.53;;
24161;SDS011;12318;51.262;7.066;2022-12-07T01:40:02;197.57;;;85.77;;
24161;SDS011;12318;51.262;7.066;2022-12-07T01:42:32;144.35;;;64.95;;
24161;SDS011;12318;51.262;7.066;2022-12-07T01:47:43;280.55;;;95.07;;
24161;SDS011;12318;51.262;7.066;2022-12-07T01:50:12;775.15;;;135.77;;
24161;SDS011;12318;51.262;7.066;2022-12-07T01:52:38;274.85;;;97.78;;
24161;SDS011;12318;51.262;7.066;2022-12-07T01:55:08;452.42;;;115.78;;
24161;SDS011;12318;51.262;7.066;2022-12-07T01:57:38;517.85;;;118.25;;
24161;SDS011;12318;51.262;7.066;2022-12-07T02:00:13;367.42;;;105.60;;
24161;SDS011;12318;51.262;7.066;2022-12-07T02:02:43;549.25;;;125.18;;
24161;SDS011;12318;51.262;7.066;2022-12-07T02:05:29;1123.07;;;175.90;;
24161;SDS011;12318;51.262;7.066;2022-12-07T02:07:56;416.85;;;118.07;;
24161;SDS011;12318;51.262;7.066;2022-12-07T02:10:24;449.88;;;120.57;;
24161;SDS011;12318;51.262;7.066;2022-12-07T02:13:00;394.67;;;112.15;;
24161;SDS011;12318;51.262;7.066;2022-12-07T02:16:13;361.65;;;112.72;;
24161;SDS011;12318;51.262;7.066;2022-12-07T02:18:44;394.58;;;118.22;;
24161;SDS011;12318;51.262;7.066;2022-12-07T02:21:39;530.45;;;130.07;;
24161;SDS011;12318;51.262;7.066;2022-12-07T02:24:15;812.58;;;149.95;;
24161;SDS011;12318;51.262;7.066;2022-12-07T02:32:02;420.27;;;124.40;;
24161;SDS011;12318;51.262;7.066;2022-12-07T02:37:00;754.53;;;148.80;;
24161;SDS011;12318;51.262;7.066;2022-12-07T02:39:40;593.45;;;137.25;;
24161;SDS011;12318;51.262;7.066;2022-12-07T02:42:14;452.20;;;125.55;;
24161;SDS011;12318;51.262;7.066;2022-12-07T02:44:44;483.60;;;126.57;;
24161;SDS011;12318;51.262;7.066;2022-12-07T02:47:11;324.80;;;112.85;;
24161;SDS011;12318;51.262;7.066;2022-12-07T02:49:40;401.98;;;122.72;;
24161;SDS011;12318;51.262;7.066;2022-12-07T02:52:06;346.17;;;115.70;;
24161;SDS011;12318;51.262;7.066;2022-12-07T02:54:32;421.80;;;124.97;;
24161;SDS011;12318;51.262;7.066;2022-12-07T02:57:11;358.15;;;117.07;;
24161;SDS011;12318;51.262;7.066;2022-12-07T03:02:42;541.22;;;137.13;;
24161;SDS011;12318;51.262;7.066;2022-12-07T03:08:51;670.60;;;146.85;;
24161;SDS011;12318;51.262;7.066;2022-12-07T03:11:49;538.40;;;138.98;;
24161;SDS011;12318;51.262;7.066;2022-12-07T03:14:25;502.60;;;129.82;;
24161;SDS011;12318;51.262;7.066;2022-12-07T03:17:17;416.08;;;127.97;;
24161;SDS011;12318;51.262;7.066;2022-12-07T03:19:46;251.10;;;98.90;;
24161;SDS011;12318;51.262;7.066;2022-12-07T03:22:16;435.10;;;122.95;;
24161;SDS011;12318;51.262;7.066;2022-12-07T03:24:53;350.20;;;117.55;;
24161;SDS011;12318;51.262;7.066;2022-12-07T03:27:24;321.63;;;112.00;;
24161;SDS011;12318;51.262;7.066;2022-12-07T03:32:45;482.85;;;128.10;;
24161;SDS011;12318;51.262;7.066;2022-12-07T03:35:21;219.15;;;95.07;;
24161;SDS011;12318;51.262;7.066;2022-12-07T03:37:55;500.35;;;128.52;;
24161;SDS011;12318;51.262;7.066;2022-12-07T03:40:35;377.80;;;120.10;;
24161;SDS011;12318;51.262;7.066;2022-12-07T03:43:05;395.30;;;125.40;;
24161;SDS011;12318;51.262;7.066;2022-12-07T03:45:39;424.92;;;126.60;;
24161;SDS011;12318;51.262;7.066;2022-12-07T03:50:42;490.85;;;133.68;;
24161;SDS011;12318;51.262;7.066;2022-12-07T03:55:42;389.73;;;123.15;;
24161;SDS011;12318;51.262;7.066;2022-12-07T03:58:12;342.65;;;117.28;;
24161;SDS011;12318;51.262;7.066;2022-12-07T04:00:44;451.50;;;129.30;;
24161;SDS011;12318;51.262;7.066;2022-12-07T04:03:11;288.20;;;109.03;;
24161;SDS011;12318;51.262;7.066;2022-12-07T04:05:37;388.30;;;121.57;;
24161;SDS011;12318;51.262;7.066;2022-12-07T04:08:04;347.63;;;119.28;;
24161;SDS011;12318;51.262;7.066;2022-12-07T04:10:30;406.13;;;126.40;;
24161;SDS011;12318;51.262;7.066;2022-12-07T04:12:55;427.85;;;123.63;;
24161;SDS011;12318;51.262;7.066;2022-12-07T04:15:21;349.08;;;117.60;;
24161;SDS011;12318;51.262;7.066;2022-12-07T04:17:47;374.95;;;119.07;;
24161;SDS011;12318;51.262;7.066;2022-12-07T04:20:14;568.53;;;134.35;;
24161;SDS011;12318;51.262;7.066;2022-12-07T04:22:40;306.60;;;113.50;;
24161;SDS011;12318;51.262;7.066;2022-12-07T04:25:06;288.10;;;108.57;;
24161;SDS011;12318;51.262;7.066;2022-12-07T04:27:32;368.38;;;120.88;;
24161;SDS011;12318;51.262;7.066;2022-12-07T04:29:58;468.88;;;128.88;;
24161;SDS011;12318;51.262;7.066;2022-12-07T04:32:23;394.08;;;119.90;;
24161;SDS011;12318;51.262;7.066;2022-12-07T04:34:49;320.67;;;110.40;;
24161;SDS011;12318;51.262;7.066;2022-12-07T04:37:15;286.65;;;104.30;;
24161;SDS011;12318;51.262;7.066;2022-12-07T04:39:42;356.42;;;116.35;;
24161;SDS011;12318;51.262;7.066;2022-12-07T04:42:10;302.10;;;104.57;;
24161;SDS011;12318;51.262;7.066;2022-12-07T04:44:37;315.33;;;106.55;;
24161;SDS011;12318;51.262;7.066;2022-12-07T04:47:03;351.45;;;112.40;;
24161;SDS011;12318;51.262;7.066;2022-12-07T04:49:29;274.02;;;105.70;;
24161;SDS011;12318;51.262;7.066;2022-12-07T04:51:54;247.50;;;98.13;;
24161;SDS011;12318;51.262;7.066;2022-12-07T04:54:20;361.13;;;108.45;;
24161;SDS011;12318;51.262;7.066;2022-12-07T04:56:46;282.30;;;94.70;;
24161;SDS011;12318;51.262;7.066;2022-12-07T04:59:13;265.33;;;97.13;;
24161;SDS011;12318;51.262;7.066;2022-12-07T05:01:40;305.95;;;97.50;;
24161;SDS011;12318;51.262;7.066;2022-12-07T05:04:06;128.88;;;62.97;;
24161;SDS011;12318;51.262;7.066;2022-12-07T05:06:33;321.58;;;100.60;;
24161;SDS011;12318;51.262;7.066;2022-12-07T05:08:58;298.95;;;95.18;;
24161;SDS011;12318;51.262;7.066;2022-12-07T05:11:24;276.98;;;96.55;;
24161;SDS011;12318;51.262;7.066;2022-12-07T05:14:06;275.17;;;95.93;;
24161;SDS011;12318;51.262;7.066;2022-12-07T05:16:45;294.02;;;99.25;;
24161;SDS011;12318;51.262;7.066;2022-12-07T05:19:14;328.85;;;104.47;;
24161;SDS011;12318;51.262;7.066;2022-12-07T05:21:39;281.42;;;96.75;;
24161;SDS011;12318;51.262;7.066;2022-12-07T05:24:06;280.95;;;97.47;;
24161;SDS011;12318;51.262;7.066;2022-12-07T05:26:33;259.10;;;88.28;;
24161;SDS011;12318;51.262;7.066;2022-12-07T05:28:59;265.33;;;96.05;;
24161;SDS011;12318;51.262;7.066;2022-12-07T05:31:25;263.02;;;96.65;;
24161;SDS011;12318;51.262;7.066;2022-12-07T05:33:51;312.60;;;99.78;;
24161;SDS011;12318;51.262;7.066;2022-12-07T05:36:18;307.25;;;100.63;;
24161;SDS011;12318;51.262;7.066;2022-12-07T05:38:43;322.55;;;102.85;;
24161;SDS011;12318;51.262;7.066;2022-12-07T05:41:11;348.25;;;106.57;;
24161;SDS011;12318;51.262;7.066;2022-12-07T05:43:58;303.08;;;102.55;;
24161;SDS011;12318;51.262;7.066;2022-12-07T05:46:24;341.98;;;104.60;;
24161;SDS011;12318;51.262;7.066;2022-12-07T05:48:49;260.67;;;92.32;;
24161;SDS011;12318;51.262;7.066;2022-12-07T05:51:16;228.73;;;89.18;;
24161;SDS011;12318;51.262;7.066;2022-12-07T05:53:42;282.60;;;97.47;;
24161;SDS011;12318;51.262;7.066;2022-12-07T05:56:08;232.18;;;90.05;;
24161;SDS011;12318;51.262;7.066;2022-12-07T05:58:33;272.23;;;97.50;;
24161;SDS011;12318;51.262;7.066;2022-12-07T06:01:18;319.50;;;101.70;;
24161;SDS011;12318;51.262;7.066;2022-12-07T06:03:43;223.77;;;86.38;;
24161;SDS011;12318;51.262;7.066;2022-12-07T06:06:10;213.98;;;85.82;;
24161;SDS011;12318;51.262;7.066;2022-12-07T06:08:36;227.65;;;86.40;;
24161;SDS011;12318;51.262;7.066;2022-12-07T06:11:02;246.48;;;89.07;;
24161;SDS011;12318;51.262;7.066;2022-12-07T06:13:46;240.52;;;86.13;;
24161;SDS011;12318;51.262;7.066;2022-12-07T06:16:12;229.68;;;86.80;;
24161;SDS011;12318;51.262;7.066;2022-12-07T06:18:37;263.38;;;90.03;;
24161;SDS011;12318;51.262;7.066;2022-12-07T06:21:03;261.50;;;89.93;;
24161;SDS011;12318;51.262;7.066;2022-12-07T06:23:29;283.55;;;95.57;;
24161;SDS011;12318;51.262;7.066;2022-12-07T06:25:55;150.52;;;71.55;;
24161;SDS011;12318;51.262;7.066;2022-12-07T06:28:20;317.15;;;97.53;;
24161;SDS011;12318;51.262;7.066;2022-12-07T06:30:46;264.77;;;92.60;;
24161;SDS011;12318;51.262;7.066;2022-12-07T06:33:12;397.65;;;100.35;;
24161;SDS011;12318;51.262;7.066;2022-12-07T06:35:38;263.90;;;90.75;;
24161;SDS011;12318;51.262;7.066;2022-12-07T06:38:03;257.98;;;86.03;;
24161;SDS011;12318;51.262;7.066;2022-12-07T06:40:29;228.07;;;83.55;;
24161;SDS011;12318;51.262;7.066;2022-12-07T06:42:55;359.90;;;99.30;;
24161;SDS011;12318;51.262;7.066;2022-12-07T06:45:20;300.80;;;92.43;;
24161;SDS011;12318;51.262;7.066;2022-12-07T06:47:46;257.90;;;88.10;;
24161;SDS011;12318;51.262;7.066;2022-12-07T06:50:12;202.57;;;78.30;;
24161;SDS011;12318;51.262;7.066;2022-12-07T06:52:38;343.33;;;94.85;;
24161;SDS011;12318;51.262;7.066;2022-12-07T06:55:04;177.70;;;71.57;;
24161;SDS011;12318;51.262;7.066;2022-12-07T06:57:30;193.98;;;74.25;;
24161;SDS011;12318;51.262;7.066;2022-12-07T06:59:56;203.27;;;73.60;;
24161;SDS011;12318;51.262;7.066;2022-12-07T07:02:21;159.50;;;65.22;;
24161;SDS011;12318;51.262;7.066;2022-12-07T07:04:47;247.90;;;78.30;;
24161;SDS011;12318;51.262;7.066;2022-12-07T07:07:13;317.67;;;85.40;;
24161;SDS011;12318;51.262;7.066;2022-12-07T07:09:41;157.63;;;67.38;;
24161;SDS011;12318;51.262;7.066;2022-12-07T07:12:09;163.93;;;67.70;;
24161;SDS011;12318;51.262;7.066;2022-12-07T07:14:35;192.40;;;70.82;;
24161;SDS011;12318;51.262;7.066;2022-12-07T07:17:01;171.85;;;68.03;;
24161;SDS011;12318;51.262;7.066;2022-12-07T07:19:27;157.15;;;64.13;;
24161;SDS011;12318;51.262;7.066;2022-12-07T07:21:56;141.68;;;61.65;;
24161;SDS011;12318;51.262;7.066;2022-12-07T07:24:27;171.10;;;66.93;;
24161;SDS011;12318;51.262;7.066;2022-12-07T07:27:05;184.05;;;69.57;;
24161;SDS011;12318;51.262;7.066;2022-12-07T07:29:33;159.77;;;65.72;;
24161;SDS011;12318;51.262;7.066;2022-12-07T07:32:19;174.52;;;66.70;;
24161;SDS011;12318;51.262;7.066;2022-12-07T07:34:47;174.48;;;66.45;;
24161;SDS011;12318;51.262;7.066;2022-12-07T07:37:18;158.35;;;64.88;;
24161;SDS011;12318;51.262;7.066;2022-12-07T07:39:52;120.88;;;56.83;;
24161;SDS011;12318;51.262;7.066;2022-12-07T07:42:18;186.20;;;66.55;;
24161;SDS011;12318;51.262;7.066;2022-12-07T07:44:46;78.88;;;43.40;;
24161;SDS011;12318;51.262;7.066;2022-12-07T07:47:13;154.50;;;62.55;;
24161;SDS011;12318;51.262;7.066;2022-12-07T07:49:44;140.27;;;57.97;;
24161;SDS011;12318;51.262;7.066;2022-12-07T07:52:10;212.43;;;68.47;;
24161;SDS011;12318;51.262;7.066;2022-12-07T07:54:36;199.07;;;66.65;;
24161;SDS011;12318;51.262;7.066;2022-12-07T07:57:12;229.07;;;69.47;;
24161;SDS011;12318;51.262;7.066;2022-12-07T08:02:24;108.35;;;48.72;;
24161;SDS011;12318;51.262;7.066;2022-12-07T08:05:05;123.53;;;56.05;;
24161;SDS011;12318;51.262;7.066;2022-12-07T08:07:49;121.18;;;54.80;;
24161;SDS011;12318;51.262;7.066;2022-12-07T08:10:17;150.82;;;59.53;;
24161;SDS011;12318;51.262;7.066;2022-12-07T08:12:48;137.05;;;54.05;;
24161;SDS011;12318;51.262;7.066;2022-12-07T08:15:36;107.07;;;49.00;;
24161;SDS011;12318;51.262;7.066;2022-12-07T08:18:03;131.45;;;53.95;;
24161;SDS011;12318;51.262;7.066;2022-12-07T08:20:33;128.85;;;53.97;;
24161;SDS011;12318;51.262;7.066;2022-12-07T08:23:00;117.72;;;53.95;;
24161;SDS011;12318;51.262;7.066;2022-12-07T08:25:29;80.13;;;42.47;;
24161;SDS011;12318;51.262;7.066;2022-12-07T08:28:01;83.78;;;41.83;;
24161;SDS011;12318;51.262;7.066;2022-12-07T08:30:44;61.40;;;34.13;;
24161;SDS011;12318;51.262;7.066;2022-12-07T08:33:10;126.05;;;49.80;;
24161;SDS011;12318;51.262;7.066;2022-12-07T08:35:39;74.10;;;39.35;;
24161;SDS011;12318;51.262;7.066;2022-12-07T08:38:25;68.93;;;37.22;;
24161;SDS011;12318;51.262;7.066;2022-12-07T08:40:55;67.72;;;37.55;;
24161;SDS011;12318;51.262;7.066;2022-12-07T08:43:27;76.60;;;39.33;;
24161;SDS011;12318;51.262;7.066;2022-12-07T08:49:04;54.97;;;34.28;;
24161;SDS011;12318;51.262;7.066;2022-12-07T08:51:33;93.20;;;44.55;;
24161;SDS011;12318;51.262;7.066;2022-12-07T08:54:06;91.38;;;43.70;;
24161;SDS011;12318;51.262;7.066;2022-12-07T08:56:38;67.18;;;36.20;;
24161;SDS011;12318;51.262;7.066;2022-12-07T08:59:25;59.35;;;35.17;;
24161;SDS011;12318;51.262;7.066;2022-12-07T09:01:54;52.72;;;31.40;;
24161;SDS011;12318;51.262;7.066;2022-12-07T09:04:47;61.40;;;33.72;;
24161;SDS011;12318;51.262;7.066;2022-12-07T09:07:15;41.67;;;27.55;;
24161;SDS011;12318;51.262;7.066;2022-12-07T09:09:54;57.83;;;29.90;;
24161;SDS011;12318;51.262;7.066;2022-12-07T09:12:26;51.78;;;28.40;;
24161;SDS011;12318;51.262;7.066;2022-12-07T09:14:57;57.58;;;32.05;;
24161;SDS011;12318;51.262;7.066;2022-12-07T09:17:26;69.05;;;35.28;;
24161;SDS011;12318;51.262;7.066;2022-12-07T09:20:02;57.35;;;32.50;;
24161;SDS011;12318;51.262;7.066;2022-12-07T09:22:36;66.28;;;32.53;;
24161;SDS011;12318;51.262;7.066;2022-12-07T09:25:22;63.10;;;33.67;;
24161;SDS011;12318;51.262;7.066;2022-12-07T09:27:57;69.70;;;36.58;;
24161;SDS011;12318;51.262;7.066;2022-12-07T09:30:26;51.60;;;27.35;;
24161;SDS011;12318;51.262;7.066;2022-12-07T09:33:13;57.53;;;32.20;;
24161;SDS011;12318;51.262;7.066;2022-12-07T09:35:49;58.95;;;32.03;;
24161;SDS011;12318;51.262;7.066;2022-12-07T09:38:26;64.10;;;34.15;;
24161;SDS011;12318;51.262;7.066;2022-12-07T09:40:55;45.22;;;27.58;;
24161;SDS011;12318;51.262;7.066;2022-12-07T09:43:36;56.70;;;32.50;;
24161;SDS011;12318;51.262;7.066;2022-12-07T09:46:27;60.65;;;30.40;;
24161;SDS011;12318;51.262;7.066;2022-12-07T09:48:58;53.70;;;30.42;;
24161;SDS011;12318;51.262;7.066;2022-12-07T09:51:24;54.63;;;29.85;;
24161;SDS011;12318;51.262;7.066;2022-12-07T09:53:51;58.05;;;30.88;;
24161;SDS011;12318;51.262;7.066;2022-12-07T09:56:19;55.90;;;30.75;;
24161;SDS011;12318;51.262;7.066;2022-12-07T09:58:45;58.03;;;32.75;;
24161;SDS011;12318;51.262;7.066;2022-12-07T10:01:20;56.85;;;30.33;;
24161;SDS011;12318;51.262;7.066;2022-12-07T10:03:53;59.30;;;33.97;;
24161;SDS011;12318;51.262;7.066;2022-12-07T10:06:56;66.97;;;37.53;;
24161;SDS011;12318;51.262;7.066;2022-12-07T10:09:26;63.38;;;36.45;;
24161;SDS011;12318;51.262;7.066;2022-12-07T10:12:08;71.68;;;38.15;;
24161;SDS011;12318;51.262;7.066;2022-12-07T10:14:55;52.92;;;28.48;;
24161;SDS011;12318;51.262;7.066;2022-12-07T10:17:32;62.03;;;34.28;;
24161;SDS011;12318;51.262;7.066;2022-12-07T10:20:16;54.53;;;32.85;;
24161;SDS011;12318;51.262;7.066;2022-12-07T10:25:20;52.03;;;30.48;;
24161;SDS011;12318;51.262;7.066;2022-12-07T10:27:57;57.92;;;32.83;;
24161;SDS011;12318;51.262;7.066;2022-12-07T10:30:27;70.40;;;31.52;;
24161;SDS011;12318;51.262;7.066;2022-12-07T10:32:53;47.15;;;28.45;;
24161;SDS011;12318;51.262;7.066;2022-12-07T10:37:48;52.58;;;29.90;;
24161;SDS011;12318;51.262;7.066;2022-12-07T10:40:32;54.65;;;30.02;;
24161;SDS011;12318;51.262;7.066;2022-12-07T10:51:27;37.47;;;22.27;;
24161;SDS011;12318;51.262;7.066;2022-12-07T10:54:18;41.47;;;25.20;;
24161;SDS011;12318;51.262;7.066;2022-12-07T10:57:06;37.78;;;23.45;;
24161;SDS011;12318;51.262;7.066;2022-12-07T11:03:03;34.92;;;18.15;;
24161;SDS011;12318;51.262;7.066;2022-12-07T11:05:48;36.10;;;20.15;;
24161;SDS011;12318;51.262;7.066;2022-12-07T11:37:30;26.65;;;13.88;;
24161;SDS011;12318;51.262;7.066;2022-12-07T11:42:45;24.48;;;12.73;;
24161;SDS011;12318;51.262;7.066;2022-12-07T11:45:37;25.23;;;10.13;;
24161;SDS011;12318;51.262;7.066;2022-12-07T11:48:24;24.02;;;10.18;;
24161;SDS011;12318;51.262;7.066;2022-12-07T11:51:04;25.65;;;10.13;;
24161;SDS011;12318;51.262;7.066;2022-12-07T11:56:13;26.25;;;11.30;;
24161;SDS011;12318;51.262;7.066;2022-12-07T12:06:53;18.65;;;9.35;;
24161;SDS011;12318;51.262;7.066;2022-12-07T12:12:31;22.08;;;10.05;;
24161;SDS011;12318;51.262;7.066;2022-12-07T12:23:43;23.38;;;11.63;;
24161;SDS011;12318;51.262;7.066;2022-12-07T12:26:23;18.85;;;11.00;;
24161;SDS011;12318;51.262;7.066;2022-12-07T12:31:40;23.02;;;7.75;;
24161;SDS011;12318;51.262;7.066;2022-12-07T12:36:58;20.27;;;8.70;;
24161;SDS011;12318;51.262;7.066;2022-12-07T12:39:24;18.67;;;7.97;;
24161;SDS011;12318;51.262;7.066;2022-12-07T12:41:56;16.23;;;6.63;;
24161;SDS011;12318;51.262;7.066;2022-12-07T12:48:01;10.15;;;5.57;;
24161;SDS011;12318;51.262;7.066;2022-12-07T12:54:03;10.77;;;5.25;;
24161;SDS011;12318;51.262;7.066;2022-12-07T12:56:42;15.75;;;5.88;;
24161;SDS011;12318;51.262;7.066;2022-12-07T13:02:56;10.13;;;4.72;;
24161;SDS011;12318;51.262;7.066;2022-12-07T13:05:28;13.48;;;5.13;;
24161;SDS011;12318;51.262;7.066;2022-12-07T13:18:36;15.13;;;4.85;;
24161;SDS011;12318;51.262;7.066;2022-12-07T13:26:41;19.67;;;5.40;;
24161;SDS011;12318;51.262;7.066;2022-12-07T13:29:16;12.70;;;3.97;;
24161;SDS011;12318;51.262;7.066;2022-12-07T13:38:13;9.15;;;2.67;;
24161;SDS011;12318;51.262;7.066;2022-12-07T13:44:14;7.38;;;2.63;;
24161;SDS011;12318;51.262;7.066;2022-12-07T13:49:45;5.65;;;2.08;;
24161;SDS011;12318;51.262;7.066;2022-12-07T13:55:25;8.55;;;2.72;;
24161;SDS011;12318;51.262;7.066;2022-12-07T13:57:57;8.55;;;2.80;;
24161;SDS011;12318;51.262;7.066;2022-12-07T14:00:42;10.13;;;2.70;;
24161;SDS011;12318;51.262;7.066;2022-12-07T14:05:45;9.95;;;3.55;;
24161;SDS011;12318;51.262;7.066;2022-12-07T14:12:16;13.77;;;4.15;;
24161;SDS011;12318;51.262;7.066;2022-12-07T14:15:02;13.85;;;4.32;;
24161;SDS011;12318;51.262;7.066;2022-12-07T14:17:55;8.85;;;3.30;;
24161;SDS011;12318;51.262;7.066;2022-12-07T14:23:00;13.77;;;4.63;;
24161;SDS011;12318;51.262;7.066;2022-12-07T14:25:44;12.10;;;4.43;;
24161;SDS011;12318;51.262;7.066;2022-12-07T14:28:26;18.30;;;5.28;;
24161;SDS011;12318;51.262;7.066;2022-12-07T14:30:57;13.00;;;5.32;;
24161;SDS011;12318;51.262;7.066;2022-12-07T14:33:31;15.63;;;5.00;;
24161;SDS011;12318;51.262;7.066;2022-12-07T14:36:02;12.10;;;4.90;;
24161;SDS011;12318;51.262;7.066;2022-12-07T14:38:30;13.70;;;4.75;;
24161;SDS011;12318;51.262;7.066;2022-12-07T14:41:20;15.27;;;4.80;;
24161;SDS011;12318;51.262;7.066;2022-12-07T14:44:09;14.00;;;5.80;;
24161;SDS011;12318;51.262;7.066;2022-12-07T14:46:38;13.73;;;5.00;;
24161;SDS011;12318;51.262;7.066;2022-12-07T14:49:09;11.23;;;4.40;;
24161;SDS011;12318;51.262;7.066;2022-12-07T14:51:42;23.30;;;6.72;;
24161;SDS011;12318;51.262;7.066;2022-12-07T14:54:19;15.00;;;4.70;;
24161;SDS011;12318;51.262;7.066;2022-12-07T14:57:01;12.70;;;4.22;;
24161;SDS011;12318;51.262;7.066;2022-12-07T14:59:36;12.75;;;4.35;;
24161;SDS011;12318;51.262;7.066;2022-12-07T15:02:06;13.75;;;5.22;;
24161;SDS011;12318;51.262;7.066;2022-12-07T15:04:34;12.90;;;4.07;;
24161;SDS011;12318;51.262;7.066;2022-12-07T15:07:05;16.45;;;3.60;;
24161;SDS011;12318;51.262;7.066;2022-12-07T15:09:35;12.32;;;4.82;;
24161;SDS011;12318;51.262;7.066;2022-12-07T15:12:04;17.42;;;4.50;;
24161;SDS011;12318;51.262;7.066;2022-12-07T15:14:30;15.20;;;3.90;;
24161;SDS011;12318;51.262;7.066;2022-12-07T15:16:56;9.52;;;3.83;;
24161;SDS011;12318;51.262;7.066;2022-12-07T15:19:23;11.15;;;3.85;;
24161;SDS011;12318;51.262;7.066;2022-12-07T15:21:51;11.60;;;3.72;;
24161;SDS011;12318;51.262;7.066;2022-12-07T15:24:23;14.85;;;4.32;;
24161;SDS011;12318;51.262;7.066;2022-12-07T15:26:49;17.35;;;5.35;;
24161;SDS011;12318;51.262;7.066;2022-12-07T15:29:15;24.65;;;8.98;;
24161;SDS011;12318;51.262;7.066;2022-12-07T15:31:42;42.13;;;19.05;;
24161;SDS011;12318;51.262;7.066;2022-12-07T15:34:17;36.70;;;13.60;;
24161;SDS011;12318;51.262;7.066;2022-12-07T15:36:46;23.33;;;9.03;;
24161;SDS011;12318;51.262;7.066;2022-12-07T15:39:20;14.27;;;5.03;;
24161;SDS011;12318;51.262;7.066;2022-12-07T15:41:49;16.23;;;5.47;;
24161;SDS011;12318;51.262;7.066;2022-12-07T15:44:17;11.35;;;4.68;;
24161;SDS011;12318;51.262;7.066;2022-12-07T15:47:07;17.60;;;4.38;;
24161;SDS011;12318;51.262;7.066;2022-12-07T15:49:35;10.40;;;2.88;;
24161;SDS011;12318;51.262;7.066;2022-12-07T15:52:12;10.80;;;3.90;;
24161;SDS011;12318;51.262;7.066;2022-12-07T15:54:38;13.60;;;5.32;;
24161;SDS011;12318;51.262;7.066;2022-12-07T15:57:09;16.05;;;5.47;;
24161;SDS011;12318;51.262;7.066;2022-12-07T15:59:35;14.00;;;4.82;;
24161;SDS011;12318;51.262;7.066;2022-12-07T16:02:04;10.48;;;4.22;;
24161;SDS011;12318;51.262;7.066;2022-12-07T16:04:29;13.77;;;4.90;;
24161;SDS011;12318;51.262;7.066;2022-12-07T16:06:58;14.73;;;5.28;;
24161;SDS011;12318;51.262;7.066;2022-12-07T16:09:24;15.80;;;5.60;;
24161;SDS011;12318;51.262;7.066;2022-12-07T16:11:50;16.23;;;5.60;;
24161;SDS011;12318;51.262;7.066;2022-12-07T16:14:18;14.52;;;5.80;;
24161;SDS011;12318;51.262;7.066;2022-12-07T16:16:44;16.95;;;7.00;;
24161;SDS011;12318;51.262;7.066;2022-12-07T16:19:13;18.00;;;7.57;;
24161;SDS011;12318;51.262;7.066;2022-12-07T16:21:41;19.20;;;8.70;;
24161;SDS011;12318;51.262;7.066;2022-12-07T16:24:09;23.10;;;8.15;;
24161;SDS011;12318;51.262;7.066;2022-12-07T16:26:35;23.17;;;8.88;;
24161;SDS011;12318;51.262;7.066;2022-12-07T16:29:03;26.25;;;9.23;;
24161;SDS011;12318;51.262;7.066;2022-12-07T16:31:29;16.80;;;8.20;;
24161;SDS011;12318;51.262;7.066;2022-12-07T16:33:57;20.55;;;7.85;;
24161;SDS011;12318;51.262;7.066;2022-12-07T16:36:25;15.77;;;5.68;;
24161;SDS011;12318;51.262;7.066;2022-12-07T16:38:52;16.60;;;7.15;;
24161;SDS011;12318;51.262;7.066;2022-12-07T16:41:20;15.52;;;7.35;;
24161;SDS011;12318;51.262;7.066;2022-12-07T16:43:46;21.83;;;8.30;;
24161;SDS011;12318;51.262;7.066;2022-12-07T16:46:15;25.98;;;9.52;;
24161;SDS011;12318;51.262;7.066;2022-12-07T16:48:41;25.23;;;9.15;;
24161;SDS011;12318;51.262;7.066;2022-12-07T16:51:08;19.52;;;7.70;;
24161;SDS011;12318;51.262;7.066;2022-12-07T16:53:38;17.13;;;7.53;;
24161;SDS011;12318;51.262;7.066;2022-12-07T16:56:14;22.15;;;7.05;;
24161;SDS011;12318;51.262;7.066;2022-12-07T16:58:43;19.90;;;9.27;;
24161;SDS011;12318;51.262;7.066;2022-12-07T17:01:12;23.35;;;8.20;;
24161;SDS011;12318;51.262;7.066;2022-12-07T17:03:40;18.80;;;8.07;;
24161;SDS011;12318;51.262;7.066;2022-12-07T17:06:13;19.42;;;8.35;;
24161;SDS011;12318;51.262;7.066;2022-12-07T17:08:43;25.70;;;9.13;;
24161;SDS011;12318;51.262;7.066;2022-12-07T17:11:12;26.88;;;11.73;;
24161;SDS011;12318;51.262;7.066;2022-12-07T17:13:39;26.10;;;11.05;;
24161;SDS011;12318;51.262;7.066;2022-12-07T17:16:25;21.67;;;9.10;;
24161;SDS011;12318;51.262;7.066;2022-12-07T17:18:51;26.63;;;10.88;;